sensor_id;sensor_type;location;lat;lon;timestamp;temperature;humidity
6054;DHT22;3055;50.886;14.814;2023-03-23T00:01:47;10.50;99.90
6054;DHT22;3055;50.886;14.814;2023-03-23T00:04:16;10.50;99.90
6054;DHT22;3055;50.886;14.814;2023-03-23T00:06:44;10.60;99.90
6054;DHT22;3055;50.886;14.814;2023-03-23T00:09:12;10.60;99.90
6054;DHT22;3055;50.886;14.814;2023-03-23T00:11:41;10.60;99.90
6054;DHT22;3055;50.886;14.814;2023-03-23T00:14:10;10.50;99.90
6054;DHT22;3055;50.886;14.814;2023-03-23T00:16:39;10.50;99.90
6054;DHT22;3055;50.886;14.814;2023-03-23T00:19:07;10.50;99.90
6054;DHT22;3055;50.886;14.814;2023-03-23T00:25:05;10.50;99.90
6054;DHT22;3055;50.886;14.814;2023-03-23T00:27:33;10.60;99.90
6054;DHT22;3055;50.886;14.814;2023-03-23T00:30:01;10.60;99.90
6054;DHT22;3055;50.886;14.814;2023-03-23T00:32:28;10.70;99.90
6054;DHT22;3055;50.886;14.814;2023-03-23T00:34:56;10.80;94.10
6054;DHT22;3055;50.886;14.814;2023-03-23T00:37:25;10.90;59.60
6054;DHT22;3055;50.886;14.814;2023-03-23T00:39:52;11.00;54.40
6054;DHT22;3055;50.886;14.814;2023-03-23T00:42:24;11.10;39.20
6054;DHT22;3055;50.886;14.814;2023-03-23T00:44:52;11.10;28.40
6054;DHT22;3055;50.886;14.814;2023-03-23T00:47:25;11.30;17.90
6054;DHT22;3055;50.886;14.814;2023-03-23T00:49:52;11.40;5.90
6054;DHT22;3055;50.886;14.814;2023-03-23T00:52:21;11.50;1.90
6054;DHT22;3055;50.886;14.814;2023-03-23T00:54:48;11.50;1.00
6054;DHT22;3055;50.886;14.814;2023-03-23T00:57:16;11.50;1.00
6054;DHT22;3055;50.886;14.814;2023-03-23T00:59:45;11.50;1.00
6054;DHT22;3055;50.886;14.814;2023-03-23T01:02:12;11.50;1.00
6054;DHT22;3055;50.886;14.814;2023-03-23T01:04:39;11.50;1.00
6054;DHT22;3055;50.886;14.814;2023-03-23T01:07:10;11.60;1.00
6054;DHT22;3055;50.886;14.814;2023-03-23T01:09:38;11.60;1.00
6054;DHT22;3055;50.886;14.814;2023-03-23T01:12:06;11.60;1.00
6054;DHT22;3055;50.886;14.814;2023-03-23T01:14:33;11.70;1.00
6054;DHT22;3055;50.886;14.814;2023-03-23T01:17:02;11.70;1.00
6054;DHT22;3055;50.886;14.814;2023-03-23T01:19:29;11.80;1.00
6054;DHT22;3055;50.886;14.814;2023-03-23T01:21:56;11.70;1.00
6054;DHT22;3055;50.886;14.814;2023-03-23T01:24:23;11.70;1.00
6054;DHT22;3055;50.886;14.814;2023-03-23T01:26:50;11.70;1.00
6054;DHT22;3055;50.886;14.814;2023-03-23T01:29:17;11.70;1.00
6054;DHT22;3055;50.886;14.814;2023-03-23T01:31:44;11.70;1.00
6054;DHT22;3055;50.886;14.814;2023-03-23T01:34:13;11.60;1.00
6054;DHT22;3055;50.886;14.814;2023-03-23T01:36:40;11.70;1.00
6054;DHT22;3055;50.886;14.814;2023-03-23T01:39:07;11.60;1.00
6054;DHT22;3055;50.886;14.814;2023-03-23T01:41:35;11.60;1.00
6054;DHT22;3055;50.886;14.814;2023-03-23T01:44:04;11.60;1.00
6054;DHT22;3055;50.886;14.814;2023-03-23T01:46:33;11.60;1.00
6054;DHT22;3055;50.886;14.814;2023-03-23T01:49:03;11.60;1.00
6054;DHT22;3055;50.886;14.814;2023-03-23T01:51:37;11.60;1.00
6054;DHT22;3055;50.886;14.814;2023-03-23T01:54:07;11.70;1.00
6054;DHT22;3055;50.886;14.814;2023-03-23T01:56:40;11.70;1.00
6054;DHT22;3055;50.886;14.814;2023-03-23T01:59:10;11.70;1.00
6054;DHT22;3055;50.886;14.814;2023-03-23T02:01:38;11.70;1.00
6054;DHT22;3055;50.886;14.814;2023-03-23T02:04:11;11.80;1.00
6054;DHT22;3055;50.886;14.814;2023-03-23T02:06:41;11.80;1.00
6054;DHT22;3055;50.886;14.814;2023-03-23T02:09:11;11.80;1.00
6054;DHT22;3055;50.886;14.814;2023-03-23T02:11:39;11.80;1.00
6054;DHT22;3055;50.886;14.814;2023-03-23T02:14:06;11.80;1.00
6054;DHT22;3055;50.886;14.814;2023-03-23T02:16:38;11.90;1.00
6054;DHT22;3055;50.886;14.814;2023-03-23T02:19:31;11.90;1.00
6054;DHT22;3055;50.886;14.814;2023-03-23T02:24:57;11.90;1.00
6054;DHT22;3055;50.886;14.814;2023-03-23T02:33:36;12.00;1.00
6054;DHT22;3055;50.886;14.814;2023-03-23T02:36:10;12.00;1.00
6054;DHT22;3055;50.886;14.814;2023-03-23T02:38:44;12.00;1.00
6054;DHT22;3055;50.886;14.814;2023-03-23T02:41:18;12.00;1.00
6054;DHT22;3055;50.886;14.814;2023-03-23T02:43:46;11.90;1.00
6054;DHT22;3055;50.886;14.814;2023-03-23T02:46:15;12.00;1.00
6054;DHT22;3055;50.886;14.814;2023-03-23T02:48:46;12.00;1.00
6054;DHT22;3055;50.886;14.814;2023-03-23T02:51:18;11.90;1.00
6054;DHT22;3055;50.886;14.814;2023-03-23T02:53:46;11.90;1.00
6054;DHT22;3055;50.886;14.814;2023-03-23T02:56:15;11.80;1.00
6054;DHT22;3055;50.886;14.814;2023-03-23T02:58:43;11.90;1.00
6054;DHT22;3055;50.886;14.814;2023-03-23T03:01:53;11.90;1.00
6054;DHT22;3055;50.886;14.814;2023-03-23T03:04:24;11.80;1.00
6054;DHT22;3055;50.886;14.814;2023-03-23T03:09:55;12.00;1.00
6054;DHT22;3055;50.886;14.814;2023-03-23T03:12:32;12.00;1.00
6054;DHT22;3055;50.886;14.814;2023-03-23T03:15:08;12.00;1.00
6054;DHT22;3055;50.886;14.814;2023-03-23T03:17:41;12.00;1.00
6054;DHT22;3055;50.886;14.814;2023-03-23T03:20:13;12.00;1.00
6054;DHT22;3055;50.886;14.814;2023-03-23T03:22:42;11.90;1.00
6054;DHT22;3055;50.886;14.814;2023-03-23T03:25:12;11.90;1.00
6054;DHT22;3055;50.886;14.814;2023-03-23T03:27:42;11.80;1.00
6054;DHT22;3055;50.886;14.814;2023-03-23T03:30:13;11.80;1.00
6054;DHT22;3055;50.886;14.814;2023-03-23T03:32:44;11.90;1.00
6054;DHT22;3055;50.886;14.814;2023-03-23T03:35:15;11.90;1.00
6054;DHT22;3055;50.886;14.814;2023-03-23T03:37:43;12.00;1.00
6054;DHT22;3055;50.886;14.814;2023-03-23T03:40:13;12.00;1.00
6054;DHT22;3055;50.886;14.814;2023-03-23T03:42:43;12.00;1.00
6054;DHT22;3055;50.886;14.814;2023-03-23T03:45:13;12.00;1.00
6054;DHT22;3055;50.886;14.814;2023-03-23T03:47:40;11.90;1.00
6054;DHT22;3055;50.886;14.814;2023-03-23T03:50:08;11.90;1.00
6054;DHT22;3055;50.886;14.814;2023-03-23T03:52:37;11.90;1.00
6054;DHT22;3055;50.886;14.814;2023-03-23T03:55:07;11.80;1.00
6054;DHT22;3055;50.886;14.814;2023-03-23T03:57:34;11.80;1.00
6054;DHT22;3055;50.886;14.814;2023-03-23T04:00:02;11.80;1.00
6054;DHT22;3055;50.886;14.814;2023-03-23T04:02:41;11.70;1.00
6054;DHT22;3055;50.886;14.814;2023-03-23T04:05:08;11.70;1.00
6054;DHT22;3055;50.886;14.814;2023-03-23T04:07:38;11.70;1.00
6054;DHT22;3055;50.886;14.814;2023-03-23T04:10:07;11.70;1.00
6054;DHT22;3055;50.886;14.814;2023-03-23T04:12:35;11.60;1.00
6054;DHT22;3055;50.886;14.814;2023-03-23T04:15:03;11.50;1.00
6054;DHT22;3055;50.886;14.814;2023-03-23T04:17:30;11.40;1.00
6054;DHT22;3055;50.886;14.814;2023-03-23T04:19:57;11.40;1.00
6054;DHT22;3055;50.886;14.814;2023-03-23T04:22:25;11.40;1.00
6054;DHT22;3055;50.886;14.814;2023-03-23T04:24:57;11.40;1.00
6054;DHT22;3055;50.886;14.814;2023-03-23T04:27:27;11.40;1.00
6054;DHT22;3055;50.886;14.814;2023-03-23T04:29:55;11.40;1.00
6054;DHT22;3055;50.886;14.814;2023-03-23T04:32:24;11.40;1.00
6054;DHT22;3055;50.886;14.814;2023-03-23T04:34:55;11.40;1.00
6054;DHT22;3055;50.886;14.814;2023-03-23T04:37:23;11.40;1.00
6054;DHT22;3055;50.886;14.814;2023-03-23T04:39:54;11.50;1.00
6054;DHT22;3055;50.886;14.814;2023-03-23T04:42:27;11.50;1.00
6054;DHT22;3055;50.886;14.814;2023-03-23T04:44:55;11.50;1.00
6054;DHT22;3055;50.886;14.814;2023-03-23T04:47:23;11.40;1.00
6054;DHT22;3055;50.886;14.814;2023-03-23T04:49:51;11.40;1.00
6054;DHT22;3055;50.886;14.814;2023-03-23T04:52:18;11.50;1.00
6054;DHT22;3055;50.886;14.814;2023-03-23T04:54:46;11.50;1.00
6054;DHT22;3055;50.886;14.814;2023-03-23T04:57:13;11.60;1.00
6054;DHT22;3055;50.886;14.814;2023-03-23T04:59:43;11.70;1.00
6054;DHT22;3055;50.886;14.814;2023-03-23T05:02:10;11.70;1.00
6054;DHT22;3055;50.886;14.814;2023-03-23T05:04:38;11.70;1.00
6054;DHT22;3055;50.886;14.814;2023-03-23T05:07:06;11.70;1.00
6054;DHT22;3055;50.886;14.814;2023-03-23T05:09:34;11.70;1.00
6054;DHT22;3055;50.886;14.814;2023-03-23T05:12:04;11.80;1.00
6054;DHT22;3055;50.886;14.814;2023-03-23T05:14:32;11.70;1.00
6054;DHT22;3055;50.886;14.814;2023-03-23T05:17:00;11.80;1.00
6054;DHT22;3055;50.886;14.814;2023-03-23T05:19:27;11.80;1.00
6054;DHT22;3055;50.886;14.814;2023-03-23T05:21:57;11.80;1.00
6054;DHT22;3055;50.886;14.814;2023-03-23T05:24:29;11.70;1.00
6054;DHT22;3055;50.886;14.814;2023-03-23T05:26:58;11.80;1.00
6054;DHT22;3055;50.886;14.814;2023-03-23T05:29:25;11.80;1.00
6054;DHT22;3055;50.886;14.814;2023-03-23T05:31:55;11.80;1.00
6054;DHT22;3055;50.886;14.814;2023-03-23T05:34:26;11.90;1.00
6054;DHT22;3055;50.886;14.814;2023-03-23T05:36:54;12.00;1.00
6054;DHT22;3055;50.886;14.814;2023-03-23T05:39:23;12.10;1.00
6054;DHT22;3055;50.886;14.814;2023-03-23T05:41:50;12.10;1.00
6054;DHT22;3055;50.886;14.814;2023-03-23T05:44:17;12.30;1.00
6054;DHT22;3055;50.886;14.814;2023-03-23T05:46:44;12.40;1.00
6054;DHT22;3055;50.886;14.814;2023-03-23T05:49:12;12.50;1.00
6054;DHT22;3055;50.886;14.814;2023-03-23T05:51:40;12.60;1.00
6054;DHT22;3055;50.886;14.814;2023-03-23T05:54:07;12.60;1.00
6054;DHT22;3055;50.886;14.814;2023-03-23T05:56:36;12.60;1.00
6054;DHT22;3055;50.886;14.814;2023-03-23T05:59:03;12.50;1.00
6054;DHT22;3055;50.886;14.814;2023-03-23T06:01:30;12.50;1.00
6054;DHT22;3055;50.886;14.814;2023-03-23T06:03:58;12.40;1.00
6054;DHT22;3055;50.886;14.814;2023-03-23T06:06:25;12.30;1.00
6054;DHT22;3055;50.886;14.814;2023-03-23T06:08:53;12.30;1.00
6054;DHT22;3055;50.886;14.814;2023-03-23T06:11:21;12.30;1.00
6054;DHT22;3055;50.886;14.814;2023-03-23T06:13:48;12.20;1.00
6054;DHT22;3055;50.886;14.814;2023-03-23T06:16:16;12.20;1.00
6054;DHT22;3055;50.886;14.814;2023-03-23T06:18:43;12.10;1.00
6054;DHT22;3055;50.886;14.814;2023-03-23T06:21:10;12.10;1.00
6054;DHT22;3055;50.886;14.814;2023-03-23T06:23:38;12.10;1.00
6054;DHT22;3055;50.886;14.814;2023-03-23T06:26:07;12.10;1.00
6054;DHT22;3055;50.886;14.814;2023-03-23T06:28:35;12.10;1.00
6054;DHT22;3055;50.886;14.814;2023-03-23T06:31:05;12.10;1.00
6054;DHT22;3055;50.886;14.814;2023-03-23T06:33:32;12.10;1.00
6054;DHT22;3055;50.886;14.814;2023-03-23T06:36:02;12.10;1.00
6054;DHT22;3055;50.886;14.814;2023-03-23T06:38:29;12.10;1.00
6054;DHT22;3055;50.886;14.814;2023-03-23T06:40:57;12.20;1.00
6054;DHT22;3055;50.886;14.814;2023-03-23T06:43:25;12.30;1.00
6054;DHT22;3055;50.886;14.814;2023-03-23T06:45:52;12.30;1.00
6054;DHT22;3055;50.886;14.814;2023-03-23T06:48:19;12.30;1.00
6054;DHT22;3055;50.886;14.814;2023-03-23T06:50:46;12.30;1.00
6054;DHT22;3055;50.886;14.814;2023-03-23T06:53:13;12.30;1.00
6054;DHT22;3055;50.886;14.814;2023-03-23T06:55:43;12.40;1.00
6054;DHT22;3055;50.886;14.814;2023-03-23T06:58:10;12.50;1.00
6054;DHT22;3055;50.886;14.814;2023-03-23T07:00:38;12.50;1.00
6054;DHT22;3055;50.886;14.814;2023-03-23T07:03:06;12.60;1.00
6054;DHT22;3055;50.886;14.814;2023-03-23T07:05:34;12.60;1.00
6054;DHT22;3055;50.886;14.814;2023-03-23T07:08:01;12.60;1.00
6054;DHT22;3055;50.886;14.814;2023-03-23T07:10:29;12.60;1.00
6054;DHT22;3055;50.886;14.814;2023-03-23T07:12:57;12.80;1.00
6054;DHT22;3055;50.886;14.814;2023-03-23T07:15:25;12.90;1.00
6054;DHT22;3055;50.886;14.814;2023-03-23T07:17:53;13.20;1.00
6054;DHT22;3055;50.886;14.814;2023-03-23T07:20:21;13.40;1.00
6054;DHT22;3055;50.886;14.814;2023-03-23T07:22:48;13.50;1.00
6054;DHT22;3055;50.886;14.814;2023-03-23T07:25:15;13.50;1.00
6054;DHT22;3055;50.886;14.814;2023-03-23T07:27:44;13.60;1.00
6054;DHT22;3055;50.886;14.814;2023-03-23T07:30:12;13.70;1.00
6054;DHT22;3055;50.886;14.814;2023-03-23T07:32:40;13.70;1.00
6054;DHT22;3055;50.886;14.814;2023-03-23T07:35:09;13.70;1.00
6054;DHT22;3055;50.886;14.814;2023-03-23T07:37:37;13.70;1.00
6054;DHT22;3055;50.886;14.814;2023-03-23T07:40:04;13.70;1.00
6054;DHT22;3055;50.886;14.814;2023-03-23T07:42:40;13.80;1.00
6054;DHT22;3055;50.886;14.814;2023-03-23T07:45:09;13.70;1.00
6054;DHT22;3055;50.886;14.814;2023-03-23T07:47:36;13.70;1.00
6054;DHT22;3055;50.886;14.814;2023-03-23T07:50:04;13.80;1.00
6054;DHT22;3055;50.886;14.814;2023-03-23T07:52:33;13.80;1.00
6054;DHT22;3055;50.886;14.814;2023-03-23T07:55:01;13.90;1.00
6054;DHT22;3055;50.886;14.814;2023-03-23T07:57:29;13.90;1.00
6054;DHT22;3055;50.886;14.814;2023-03-23T07:59:56;14.00;1.00
6054;DHT22;3055;50.886;14.814;2023-03-23T08:02:23;14.10;1.00
6054;DHT22;3055;50.886;14.814;2023-03-23T08:04:50;14.10;1.00
6054;DHT22;3055;50.886;14.814;2023-03-23T08:07:19;14.10;1.00
6054;DHT22;3055;50.886;14.814;2023-03-23T08:09:48;14.20;1.00
6054;DHT22;3055;50.886;14.814;2023-03-23T08:12:15;14.30;1.00
6054;DHT22;3055;50.886;14.814;2023-03-23T08:14:42;14.20;1.00
6054;DHT22;3055;50.886;14.814;2023-03-23T08:17:09;14.30;1.00
6054;DHT22;3055;50.886;14.814;2023-03-23T08:19:37;14.20;1.00
6054;DHT22;3055;50.886;14.814;2023-03-23T08:22:04;14.20;1.00
6054;DHT22;3055;50.886;14.814;2023-03-23T08:24:31;14.20;1.00
6054;DHT22;3055;50.886;14.814;2023-03-23T08:27:00;14.30;1.00
6054;DHT22;3055;50.886;14.814;2023-03-23T08:29:27;14.40;1.00
6054;DHT22;3055;50.886;14.814;2023-03-23T08:31:56;14.50;1.00
6054;DHT22;3055;50.886;14.814;2023-03-23T08:34:23;14.70;1.00
6054;DHT22;3055;50.886;14.814;2023-03-23T08:36:51;14.90;1.00
6054;DHT22;3055;50.886;14.814;2023-03-23T08:39:18;15.00;1.00
6054;DHT22;3055;50.886;14.814;2023-03-23T08:41:45;15.20;1.00
6054;DHT22;3055;50.886;14.814;2023-03-23T08:44:14;15.30;1.00
6054;DHT22;3055;50.886;14.814;2023-03-23T08:46:41;15.40;1.00
6054;DHT22;3055;50.886;14.814;2023-03-23T08:49:08;15.40;1.00
6054;DHT22;3055;50.886;14.814;2023-03-23T08:51:35;15.40;1.00
6054;DHT22;3055;50.886;14.814;2023-03-23T08:54:03;15.40;1.00
6054;DHT22;3055;50.886;14.814;2023-03-23T08:56:31;15.50;1.00
6054;DHT22;3055;50.886;14.814;2023-03-23T08:58:58;15.40;1.00
6054;DHT22;3055;50.886;14.814;2023-03-23T09:01:27;15.40;1.00
6054;DHT22;3055;50.886;14.814;2023-03-23T09:03:54;15.50;1.00
6054;DHT22;3055;50.886;14.814;2023-03-23T09:06:21;15.50;1.00
6054;DHT22;3055;50.886;14.814;2023-03-23T09:08:48;15.60;1.00
6054;DHT22;3055;50.886;14.814;2023-03-23T09:11:16;15.80;1.00
6054;DHT22;3055;50.886;14.814;2023-03-23T09:13:43;16.00;1.00
6054;DHT22;3055;50.886;14.814;2023-03-23T09:16:10;16.20;1.00
6054;DHT22;3055;50.886;14.814;2023-03-23T09:18:39;16.40;1.00
6054;DHT22;3055;50.886;14.814;2023-03-23T09:21:06;16.60;1.00
6054;DHT22;3055;50.886;14.814;2023-03-23T09:23:33;16.70;1.00
6054;DHT22;3055;50.886;14.814;2023-03-23T09:26:01;16.80;1.00
6054;DHT22;3055;50.886;14.814;2023-03-23T09:28:29;16.80;1.00
6054;DHT22;3055;50.886;14.814;2023-03-23T09:30:57;16.70;1.00
6054;DHT22;3055;50.886;14.814;2023-03-23T09:33:25;16.70;1.00
6054;DHT22;3055;50.886;14.814;2023-03-23T09:35:54;16.70;1.00
6054;DHT22;3055;50.886;14.814;2023-03-23T09:38:21;16.70;1.00
6054;DHT22;3055;50.886;14.814;2023-03-23T09:40:50;16.70;1.00
6054;DHT22;3055;50.886;14.814;2023-03-23T09:43:54;16.80;1.00
6054;DHT22;3055;50.886;14.814;2023-03-23T09:46:37;16.90;1.00
6054;DHT22;3055;50.886;14.814;2023-03-23T09:49:10;16.90;1.00
6054;DHT22;3055;50.886;14.814;2023-03-23T09:51:46;17.00;1.00
6054;DHT22;3055;50.886;14.814;2023-03-23T09:54:23;17.10;1.00
6054;DHT22;3055;50.886;14.814;2023-03-23T09:56:52;17.10;1.00
6054;DHT22;3055;50.886;14.814;2023-03-23T09:59:23;17.10;1.00
6054;DHT22;3055;50.886;14.814;2023-03-23T10:01:53;17.20;1.00
6054;DHT22;3055;50.886;14.814;2023-03-23T10:04:29;17.30;1.00
6054;DHT22;3055;50.886;14.814;2023-03-23T10:07:05;17.30;1.00
6054;DHT22;3055;50.886;14.814;2023-03-23T10:09:33;17.30;1.00
6054;DHT22;3055;50.886;14.814;2023-03-23T10:12:07;17.20;1.00
6054;DHT22;3055;50.886;14.814;2023-03-23T10:14:55;17.10;1.00
6054;DHT22;3055;50.886;14.814;2023-03-23T10:17:28;17.00;1.00
6054;DHT22;3055;50.886;14.814;2023-03-23T10:20:02;16.90;1.00
6054;DHT22;3055;50.886;14.814;2023-03-23T10:22:38;17.00;1.00
6054;DHT22;3055;50.886;14.814;2023-03-23T10:25:15;17.00;1.00
6054;DHT22;3055;50.886;14.814;2023-03-23T10:27:47;17.00;1.00
6054;DHT22;3055;50.886;14.814;2023-03-23T10:30:23;17.10;1.00
6054;DHT22;3055;50.886;14.814;2023-03-23T10:32:54;17.20;1.00
6054;DHT22;3055;50.886;14.814;2023-03-23T10:35:26;17.40;1.00
6054;DHT22;3055;50.886;14.814;2023-03-23T10:38:00;17.50;1.00
6054;DHT22;3055;50.886;14.814;2023-03-23T10:40:30;17.50;1.00
6054;DHT22;3055;50.886;14.814;2023-03-23T10:42:58;17.60;1.00
6054;DHT22;3055;50.886;14.814;2023-03-23T10:45:27;17.60;1.00
6054;DHT22;3055;50.886;14.814;2023-03-23T10:47:58;17.80;1.00
6054;DHT22;3055;50.886;14.814;2023-03-23T10:50:31;17.90;1.00
6054;DHT22;3055;50.886;14.814;2023-03-23T10:53:02;17.80;1.00
6054;DHT22;3055;50.886;14.814;2023-03-23T10:55:38;17.90;1.00
6054;DHT22;3055;50.886;14.814;2023-03-23T10:58:11;17.90;1.00
6054;DHT22;3055;50.886;14.814;2023-03-23T11:00:43;17.90;1.00
6054;DHT22;3055;50.886;14.814;2023-03-23T11:03:39;18.00;1.00
6054;DHT22;3055;50.886;14.814;2023-03-23T11:06:09;18.10;1.00
6054;DHT22;3055;50.886;14.814;2023-03-23T11:08:48;18.30;1.00
6054;DHT22;3055;50.886;14.814;2023-03-23T11:11:17;18.40;1.00
6054;DHT22;3055;50.886;14.814;2023-03-23T11:13:47;18.40;1.00
6054;DHT22;3055;50.886;14.814;2023-03-23T11:16:24;18.50;1.00
6054;DHT22;3055;50.886;14.814;2023-03-23T11:18:52;18.40;1.00
6054;DHT22;3055;50.886;14.814;2023-03-23T11:21:21;18.30;1.00
6054;DHT22;3055;50.886;14.814;2023-03-23T11:23:53;18.30;1.00
6054;DHT22;3055;50.886;14.814;2023-03-23T11:26:22;18.20;1.00
6054;DHT22;3055;50.886;14.814;2023-03-23T11:28:54;18.10;1.00
6054;DHT22;3055;50.886;14.814;2023-03-23T11:31:23;18.00;1.00
6054;DHT22;3055;50.886;14.814;2023-03-23T11:33:54;18.00;1.00
6054;DHT22;3055;50.886;14.814;2023-03-23T11:36:33;18.10;1.00
6054;DHT22;3055;50.886;14.814;2023-03-23T11:39:02;18.10;1.00
6054;DHT22;3055;50.886;14.814;2023-03-23T11:41:35;18.20;1.00
6054;DHT22;3055;50.886;14.814;2023-03-23T11:44:10;18.30;1.00
6054;DHT22;3055;50.886;14.814;2023-03-23T11:46:45;18.50;1.00
6054;DHT22;3055;50.886;14.814;2023-03-23T11:49:22;18.60;1.00
6054;DHT22;3055;50.886;14.814;2023-03-23T11:51:54;18.60;1.00
6054;DHT22;3055;50.886;14.814;2023-03-23T11:54:30;18.60;1.00
6054;DHT22;3055;50.886;14.814;2023-03-23T11:56:57;18.70;1.00
6054;DHT22;3055;50.886;14.814;2023-03-23T11:59:29;18.90;1.00
6054;DHT22;3055;50.886;14.814;2023-03-23T12:02:09;19.20;1.00
6054;DHT22;3055;50.886;14.814;2023-03-23T12:04:56;19.30;1.00
6054;DHT22;3055;50.886;14.814;2023-03-23T12:07:43;19.30;1.00
6054;DHT22;3055;50.886;14.814;2023-03-23T12:10:25;19.20;1.00
6054;DHT22;3055;50.886;14.814;2023-03-23T12:13:02;19.30;1.00
6054;DHT22;3055;50.886;14.814;2023-03-23T12:15:36;19.40;1.00
6054;DHT22;3055;50.886;14.814;2023-03-23T12:18:12;19.50;1.00
6054;DHT22;3055;50.886;14.814;2023-03-23T12:20:53;19.50;1.00
6054;DHT22;3055;50.886;14.814;2023-03-23T12:23:23;19.50;1.00
6054;DHT22;3055;50.886;14.814;2023-03-23T12:26:07;19.40;1.00
6054;DHT22;3055;50.886;14.814;2023-03-23T12:28:58;19.40;1.00
6054;DHT22;3055;50.886;14.814;2023-03-23T12:31:33;19.10;1.00
6054;DHT22;3055;50.886;14.814;2023-03-23T12:34:10;18.70;1.00
6054;DHT22;3055;50.886;14.814;2023-03-23T12:36:53;18.40;1.00
6054;DHT22;3055;50.886;14.814;2023-03-23T12:39:50;18.20;1.00
6054;DHT22;3055;50.886;14.814;2023-03-23T12:42:26;17.90;1.00
6054;DHT22;3055;50.886;14.814;2023-03-23T12:45:01;17.80;1.00
6054;DHT22;3055;50.886;14.814;2023-03-23T12:47:37;17.70;1.00
6054;DHT22;3055;50.886;14.814;2023-03-23T12:50:13;17.70;1.00
6054;DHT22;3055;50.886;14.814;2023-03-23T12:52:46;17.70;1.00
6054;DHT22;3055;50.886;14.814;2023-03-23T12:55:21;17.60;1.00
6054;DHT22;3055;50.886;14.814;2023-03-23T12:57:56;17.60;1.00
6054;DHT22;3055;50.886;14.814;2023-03-23T13:00:28;17.60;1.00
6054;DHT22;3055;50.886;14.814;2023-03-23T13:03:01;17.60;1.00
6054;DHT22;3055;50.886;14.814;2023-03-23T13:05:38;17.50;1.00
6054;DHT22;3055;50.886;14.814;2023-03-23T13:08:12;17.50;1.00
6054;DHT22;3055;50.886;14.814;2023-03-23T13:10:45;17.50;1.00
6054;DHT22;3055;50.886;14.814;2023-03-23T13:13:18;17.50;1.00
6054;DHT22;3055;50.886;14.814;2023-03-23T13:15:56;17.50;1.00
6054;DHT22;3055;50.886;14.814;2023-03-23T13:18:32;17.50;1.00
6054;DHT22;3055;50.886;14.814;2023-03-23T13:21:11;17.60;1.00
6054;DHT22;3055;50.886;14.814;2023-03-23T13:23:42;17.60;1.00
6054;DHT22;3055;50.886;14.814;2023-03-23T13:26:12;17.60;1.00
6054;DHT22;3055;50.886;14.814;2023-03-23T13:28:55;17.50;1.00
6054;DHT22;3055;50.886;14.814;2023-03-23T13:31:25;17.60;1.00
6054;DHT22;3055;50.886;14.814;2023-03-23T13:34:00;17.70;1.00
6054;DHT22;3055;50.886;14.814;2023-03-23T13:36:31;17.70;1.00
6054;DHT22;3055;50.886;14.814;2023-03-23T13:39:00;17.90;1.00
6054;DHT22;3055;50.886;14.814;2023-03-23T13:41:30;17.80;1.00
6054;DHT22;3055;50.886;14.814;2023-03-23T13:44:24;17.80;1.00
6054;DHT22;3055;50.886;14.814;2023-03-23T13:46:57;17.80;1.00
6054;DHT22;3055;50.886;14.814;2023-03-23T13:49:25;17.80;1.00
6054;DHT22;3055;50.886;14.814;2023-03-23T13:52:16;17.60;1.00
6054;DHT22;3055;50.886;14.814;2023-03-23T13:54:45;17.40;1.00
6054;DHT22;3055;50.886;14.814;2023-03-23T13:57:25;17.40;1.00
6054;DHT22;3055;50.886;14.814;2023-03-23T14:00:04;17.30;1.00
6054;DHT22;3055;50.886;14.814;2023-03-23T14:02:39;17.40;1.00
6054;DHT22;3055;50.886;14.814;2023-03-23T14:05:30;17.60;1.00
6054;DHT22;3055;50.886;14.814;2023-03-23T14:07:58;17.60;1.00
6054;DHT22;3055;50.886;14.814;2023-03-23T14:10:33;17.70;1.00
6054;DHT22;3055;50.886;14.814;2023-03-23T14:13:03;18.00;1.00
6054;DHT22;3055;50.886;14.814;2023-03-23T14:15:41;18.30;1.00
6054;DHT22;3055;50.886;14.814;2023-03-23T14:18:14;18.30;1.00
6054;DHT22;3055;50.886;14.814;2023-03-23T14:20:42;18.40;1.00
6054;DHT22;3055;50.886;14.814;2023-03-23T14:23:16;18.40;1.00
6054;DHT22;3055;50.886;14.814;2023-03-23T14:25:43;18.30;1.00
6054;DHT22;3055;50.886;14.814;2023-03-23T14:28:18;18.20;1.00
6054;DHT22;3055;50.886;14.814;2023-03-23T14:30:52;18.10;1.00
6054;DHT22;3055;50.886;14.814;2023-03-23T14:33:20;18.00;1.00
6054;DHT22;3055;50.886;14.814;2023-03-23T14:35:47;17.80;1.00
6054;DHT22;3055;50.886;14.814;2023-03-23T14:38:17;17.80;1.00
6054;DHT22;3055;50.886;14.814;2023-03-23T14:40:46;18.10;1.00
6054;DHT22;3055;50.886;14.814;2023-03-23T14:43:16;18.50;1.00
6054;DHT22;3055;50.886;14.814;2023-03-23T14:45:51;18.80;1.00
6054;DHT22;3055;50.886;14.814;2023-03-23T14:48:20;19.00;1.00
6054;DHT22;3055;50.886;14.814;2023-03-23T14:50:52;19.00;1.00
6054;DHT22;3055;50.886;14.814;2023-03-23T14:53:22;18.70;1.00
6054;DHT22;3055;50.886;14.814;2023-03-23T14:55:52;18.30;1.00
6054;DHT22;3055;50.886;14.814;2023-03-23T14:58:22;17.90;1.00
6054;DHT22;3055;50.886;14.814;2023-03-23T15:00:54;17.70;1.00
6054;DHT22;3055;50.886;14.814;2023-03-23T15:03:25;17.40;1.00
6054;DHT22;3055;50.886;14.814;2023-03-23T15:05:55;17.40;1.00
6054;DHT22;3055;50.886;14.814;2023-03-23T15:08:25;17.40;1.00
6054;DHT22;3055;50.886;14.814;2023-03-23T15:10:59;17.30;1.00
6054;DHT22;3055;50.886;14.814;2023-03-23T15:13:29;17.20;1.00
6054;DHT22;3055;50.886;14.814;2023-03-23T15:16:02;17.20;1.00
6054;DHT22;3055;50.886;14.814;2023-03-23T15:18:33;17.40;1.00
6054;DHT22;3055;50.886;14.814;2023-03-23T15:21:09;17.80;1.00
6054;DHT22;3055;50.886;14.814;2023-03-23T15:23:41;18.30;1.00
6054;DHT22;3055;50.886;14.814;2023-03-23T15:26:24;18.90;1.00
6054;DHT22;3055;50.886;14.814;2023-03-23T15:29:01;19.60;1.00
6054;DHT22;3055;50.886;14.814;2023-03-23T15:31:28;20.40;1.00
6054;DHT22;3055;50.886;14.814;2023-03-23T15:33:59;21.00;1.00
6054;DHT22;3055;50.886;14.814;2023-03-23T15:36:31;21.20;1.00
6054;DHT22;3055;50.886;14.814;2023-03-23T15:38:59;21.20;1.00
6054;DHT22;3055;50.886;14.814;2023-03-23T15:41:28;21.00;1.00
6054;DHT22;3055;50.886;14.814;2023-03-23T15:43:57;20.80;1.00
6054;DHT22;3055;50.886;14.814;2023-03-23T15:46:26;20.20;1.00
6054;DHT22;3055;50.886;14.814;2023-03-23T15:49:07;19.50;1.00
6054;DHT22;3055;50.886;14.814;2023-03-23T15:51:35;18.90;1.00
6054;DHT22;3055;50.886;14.814;2023-03-23T15:54:03;18.30;1.00
6054;DHT22;3055;50.886;14.814;2023-03-23T15:56:30;17.90;1.00
6054;DHT22;3055;50.886;14.814;2023-03-23T15:58:58;17.70;1.00
6054;DHT22;3055;50.886;14.814;2023-03-23T16:01:27;17.40;1.00
6054;DHT22;3055;50.886;14.814;2023-03-23T16:03:58;17.20;1.00
6054;DHT22;3055;50.886;14.814;2023-03-23T16:06:30;17.10;1.00
6054;DHT22;3055;50.886;14.814;2023-03-23T16:08:58;17.00;1.00
6054;DHT22;3055;50.886;14.814;2023-03-23T16:11:26;17.00;1.00
6054;DHT22;3055;50.886;14.814;2023-03-23T16:13:54;16.90;1.00
6054;DHT22;3055;50.886;14.814;2023-03-23T16:16:26;16.90;1.00
6054;DHT22;3055;50.886;14.814;2023-03-23T16:18:54;16.80;1.00
6054;DHT22;3055;50.886;14.814;2023-03-23T16:21:21;16.70;1.00
6054;DHT22;3055;50.886;14.814;2023-03-23T16:23:50;16.70;1.00
6054;DHT22;3055;50.886;14.814;2023-03-23T16:26:17;16.60;1.00
6054;DHT22;3055;50.886;14.814;2023-03-23T16:28:45;16.60;1.00
6054;DHT22;3055;50.886;14.814;2023-03-23T16:31:12;16.50;1.00
6054;DHT22;3055;50.886;14.814;2023-03-23T16:33:39;16.50;1.00
6054;DHT22;3055;50.886;14.814;2023-03-23T16:36:09;16.40;1.00
6054;DHT22;3055;50.886;14.814;2023-03-23T16:38:36;16.40;1.00
6054;DHT22;3055;50.886;14.814;2023-03-23T16:41:05;16.30;1.00